Louann, AR (71751)

4:11 PM CDT on March 29, 2015 (GMT -0500)
South Arkansas Regional At Goodwin | | Change Station
CLOSE
Current Station
Airport
Location: El Dorado,
Elevation: 276 ft
Nearby Weather Stations
Active Advisory: Flood Warning Active Notice: Record Report

Elev 276 ft 33.22 °N, 92.81 °W | Updated 18 minutes ago

Clear
Clear
82 °F
Feels Like 82 °F
N
18
Wind Variable Wind from South
Gusts 24 mph

Today
High -- | Low -- °F
--% Chance of Precip.
Yesterday
High -- | Low -- °F
Precip. -- in
7:03 AM 7:29 PM
Waxing Gibbous, 74% visible
Pressure 30.02 in
Visibility 10.0 miles
Clouds Clear
Dew Point 52 °F
Humidity 35%
Rainfall 0.00 in
Snow Depth Not available.
UV 6 out of 12
Pollen 10.80 out of 12
Air Quality Not available.
Flu Activity Not available.
METAR KELD 292053Z AUTO 18016G21KT 10SM CLR 28/11 A3002 RMK AO2 SLP164 T02780111 58028

More Conditions Fewer Conditions

Pressure 30.02 in
Visibility 10.0 miles
Clouds Clear
Dew Point 52 °F
Humidity 35%
Rainfall 0.00 in
Snow Depth Not available.
UV 6 out of 12
Pollen 10.80 out of 12
Air Quality Not available.
Flu Activity Not available.
METAR KELD 292053Z AUTO 18016G21KT 10SM CLR 28/11 A3002 RMK AO2 SLP164 T02780111 58028

More Conditions Fewer Conditions

10-Day Weather Forecast

Almanac

Astronomy

Mar. 29, 2015 Rise Set
Actual Time
Civil Twilight
Nautical Twilight
Astronomical Twilight
Moon
Length of Visible Light
Length of Day
Tomorrow will be .
, % of the Moon is Illuminated

Today's Extremes

State Highs State Lows

Community

WunderPhotos

Upload Photos

1,809,353 photos uploaded!

WunderBlogs® & News

Nearby

Air Quality

  Air Quality AQ Index Pollutant
Not available.

Snow Depth

Station Depth Elevation

Earthquake Activity

City Distance Mag. Time & Date
Minimum magnitude displayed is 2.5.

Coastal Water Temperatures

Place Temperature

Stations

Nearby Weather Stations

Station Location Temp. Windchill Dew Point Humidity Wind Precip. Elev Updated Type
                   
Flood Warning
Statement as of 8:35 AM CDT on March 29, 2015

The Flood Warning continues for
the Ouachita River at Camden.
* Until Wednesday morning... or until the warning is cancelled.
* At 7:30 am Sunday the stage was 29.1 feet.
* Minor flooding is occurring and minor flooding is forecast.
* Flood stage is 26.0 feet.
* Forecast... the river will continue to fall to below flood stage on
Tuesday.
* Impacts at 28.0 feet... Sandy Beach Park and portions of the
riverwalk area off of Washington street are inundated.




             Fld observed forecast 7 am
location stg stg day time Mon Tue Wed Thu Fri

Ouachita River
Camden 26 29.1 sun 07 am 27.9 25.3 22.6 20.2 18.5




Lat... Lon 3329 9261 3344 9280 3363 9289 3367 9275
3350 9264 3338 9247